PORT of AGIOS NIKOLAOS

Country: Greece Country: Greece (GR)
Latitude / Longitude: 35.19448° / 25.7185° Show on Map Show on Map
Local Time:  UTC +3
UN/LOCODE: GRANI
Vessels in Port: 1

Recent Arrivals & Departures


Vessel Name
Arrival (UTC)
Arrival (LT)
Departure (UTC)
Departure (LT)
Vessel Type: Passenger Vessels  OSTRIA 2014-09-17 14:00:00 2014-09-17 17:00:00 2014-09-18 10:00:00 2014-09-18 13:00:00
Vessel Type: Passenger Vessels  OSTRIA 2014-09-16 13:54:00 2014-09-16 16:54:00 2014-09-17 09:55:00 2014-09-17 12:55:00
Vessel Type: Passenger Vessels  LATO 2014-09-16 12:42:00 2014-09-16 15:42:00 2014-09-17 07:04:00 2014-09-17 10:04:00
Vessel Type: Passenger Vessels  MINERVA 2014-09-16 08:30:00 2014-09-16 11:30:00 2014-09-16 15:59:00 2014-09-16 18:59:00
Vessel Type: Passenger Vessels  OSTRIA 2014-09-15 13:56:00 2014-09-15 16:56:00 2014-09-16 09:55:00 2014-09-16 12:55:00
Vessel Type: Passenger Vessels  LATO 2014-09-14 12:49:00 2014-09-14 15:49:00 2014-09-16 07:26:00 2014-09-16 10:26:00
Vessel Type: Yachts & Others  HIGH POWER III 2014-09-14 14:22:00 2014-09-14 17:22:00 2014-09-16 05:23:00 2014-09-16 08:23:00
Vessel Type: Passenger Vessels  OSTRIA 2014-09-14 13:58:00 2014-09-14 16:58:00 2014-09-15 13:34:00 2014-09-15 16:34:00
Vessel Type: Passenger Vessels  OSTRIA 2014-09-13 13:55:00 2014-09-13 16:55:00 2014-09-14 09:46:00 2014-09-14 12:46:00
Vessel Type: Passenger Vessels  LATO 2014-09-13 12:00:00 2014-09-13 15:00:00 2014-09-14 07:07:00 2014-09-14 10:07:00

Expected Arrivals


Vessel Name
Scheduled Arrival (UTC)
Scheduled Arrival (LT)
Estimated Arrival (UTC)
Estimated Arrival (LT)
No Records Found

Wind Forecast


    
Time (UTC)
Speed
Direction
Temperature
2014-09-19 09:00:00 22 knots 351° 24°C
2014-09-19 12:00:00 22 knots 348° 24°C
2014-09-19 15:00:00 23 knots 343° 24°C
2014-09-19 18:00:00 24 knots 343° 24°C
2014-09-19 21:00:00 24 knots 346° 24°C
2014-09-20 00:00:00 25 knots 349° 24°C
2014-09-20 03:00:00 23 knots 352° 24°C
2014-09-20 06:00:00 24 knots 356° 24°C
2014-09-20 09:00:00 26 knots 353° 23°C
2014-09-20 12:00:00 26 knots 348° 23°C
2014-09-20 15:00:00 26 knots 343° 24°C
2014-09-20 18:00:00 23 knots 344° 24°C
2014-09-20 21:00:00 22 knots 344° 24°C
2014-09-21 00:00:00 21 knots 343° 24°C
2014-09-21 03:00:00 18 knots 340° 24°C
2014-09-21 06:00:00 19 knots 341° 24°C